Time;durP1;ratioP1;P1;durP2;ratioP2;P2;SDS_P1;SDS_P2;PMS_P1;PMS_P2;Temp;Humidity;BMP_temperature;BMP_pressure;BME280_temperature;BME280_humidity;BME280_pressure;Samples;Min_cycle;Max_cycle;Signal;HPM_P1;HPM_P2
2020/12/16 00:00:51;;;;;;;15.10;4.75;;;17.10;52.10;;;;;;5086065;28;20059;-75
2020/12/16 00:03:18;;;;;;;15.57;3.70;;;17.10;52.90;;;;;;5088769;28;20107;-75
2020/12/16 00:05:45;;;;;;;17.88;4.32;;;17.00;52.30;;;;;;5097276;28;20038;-75
2020/12/16 00:08:12;;;;;;;21.83;6.43;;;16.80;51.20;;;;;;5108100;28;20020;-75
2020/12/16 00:10:39;;;;;;;15.63;4.93;;;16.70;51.90;;;;;;5084880;28;20452;-75
2020/12/16 00:13:10;;;;;;;13.23;4.32;;;16.80;53.20;;;;;;5094277;28;20376;-74
2020/12/16 00:15:37;;;;;;;10.15;3.95;;;16.80;52.30;;;;;;5095429;28;20024;-75
2020/12/16 00:18:04;;;;;;;16.38;4.15;;;16.80;53.50;;;;;;5096382;28;20039;-75
2020/12/16 00:20:31;;;;;;;9.50;3.42;;;16.80;53.10;;;;;;5095955;28;20029;-74
2020/12/16 00:22:58;;;;;;;13.18;3.83;;;16.70;53.90;;;;;;5115073;28;20024;-74
2020/12/16 00:25:24;;;;;;;13.55;3.75;;;16.70;53.70;;;;;;5093144;28;20115;-74
2020/12/16 00:27:51;;;;;;;13.35;4.30;;;16.70;53.70;;;;;;5093966;28;21533;-74
2020/12/16 00:30:17;;;;;;;15.68;4.18;;;16.70;54.30;;;;;;5087880;28;20434;-75
2020/12/16 00:32:44;;;;;;;14.73;4.30;;;16.60;54.40;;;;;;5099571;28;20500;-75
2020/12/16 00:35:10;;;;;;;16.65;4.30;;;16.50;54.30;;;;;;5096723;28;20063;-75
2020/12/16 00:37:43;;;;;;;9.88;4.30;;;16.40;54.40;;;;;;5088817;28;20039;-75
2020/12/16 00:40:12;;;;;;;11.73;4.38;;;16.20;54.80;;;;;;5099437;28;20130;-75
2020/12/16 00:42:39;;;;;;;19.88;4.25;;;16.10;54.70;;;;;;5109280;28;20118;-75
2020/12/16 00:45:07;;;;;;;10.80;4.00;;;16.00;55.00;;;;;;5114571;28;20357;-75
2020/12/16 00:47:36;;;;;;;10.60;4.75;;;15.90;54.80;;;;;;5095977;28;20028;-75
2020/12/16 00:50:07;;;;;;;14.82;4.47;;;15.60;55.20;;;;;;5092991;28;20034;-75
2020/12/16 00:52:34;;;;;;;13.70;4.32;;;15.50;55.60;;;;;;5109576;28;20474;-75
2020/12/16 00:55:01;;;;;;;15.75;3.90;;;15.40;55.80;;;;;;5099362;28;20020;-75
2020/12/16 00:57:27;;;;;;;12.02;5.00;;;15.30;56.10;;;;;;5090564;28;20341;-75
2020/12/16 00:59:53;;;;;;;9.63;3.78;;;15.20;56.00;;;;;;5098856;28;20085;-75
2020/12/16 01:02:20;;;;;;;11.00;4.40;;;15.10;56.00;;;;;;5097085;28;21263;-75
2020/12/16 01:04:46;;;;;;;16.40;5.32;;;15.00;56.70;;;;;;5095433;28;20023;-75
2020/12/16 01:07:13;;;;;;;22.85;7.28;;;14.90;56.30;;;;;;5090642;28;20024;-75
2020/12/16 01:09:39;;;;;;;16.35;5.20;;;14.80;56.40;;;;;;5096545;28;20039;-76
2020/12/16 01:12:06;;;;;;;13.38;4.45;;;14.80;56.30;;;;;;5095402;28;20028;-75
2020/12/16 01:14:32;;;;;;;15.52;4.35;;;14.70;56.10;;;;;;5103182;28;20035;-76
2020/12/16 01:16:58;;;;;;;23.42;4.53;;;14.50;56.20;;;;;;5096547;28;20084;-75
2020/12/16 01:19:25;;;;;;;13.45;4.32;;;14.30;57.00;;;;;;5102968;28;20046;-75
2020/12/16 01:21:51;;;;;;;11.18;3.58;;;14.10;58.20;;;;;;5100987;28;20368;-75
2020/12/16 01:24:18;;;;;;;18.35;5.03;;;14.00;57.90;;;;;;5095407;28;20056;-75
2020/12/16 01:26:46;;;;;;;8.27;3.30;;;14.00;58.10;;;;;;5105612;28;20529;-75
2020/12/16 01:29:17;;;;;;;8.70;3.40;;;13.80;58.00;;;;;;5098979;28;20047;-75
2020/12/16 01:31:48;;;;;;;7.22;3.40;;;13.80;58.10;;;;;;5086067;28;20097;-75
2020/12/16 01:34:22;;;;;;;9.95;3.67;;;13.70;58.20;;;;;;5089752;28;20021;-76
2020/12/16 01:36:49;;;;;;;17.67;4.95;;;13.70;58.30;;;;;;5099054;28;20036;-76
2020/12/16 01:39:17;;;;;;;16.55;3.67;;;13.70;58.50;;;;;;5097066;28;20117;-75
2020/12/16 01:41:46;;;;;;;14.32;4.57;;;13.70;58.00;;;;;;5097046;28;20446;-75
2020/12/16 01:44:22;;;;;;;18.05;4.65;;;13.70;58.10;;;;;;5093425;28;20434;-75
2020/12/16 01:46:50;;;;;;;13.45;4.60;;;13.60;58.00;;;;;;5098906;28;20030;-76
2020/12/16 01:49:17;;;;;;;15.50;4.75;;;13.50;58.00;;;;;;5097652;28;20032;-76
2020/12/16 01:51:44;;;;;;;20.30;6.28;;;13.50;58.30;;;;;;5093079;28;20028;-75
2020/12/16 01:54:14;;;;;;;17.98;4.65;;;13.40;58.10;;;;;;5098761;28;20001;-75
2020/12/16 01:56:42;;;;;;;19.67;6.53;;;13.40;58.00;;;;;;5104215;28;20055;-75
2020/12/16 01:59:12;;;;;;;20.95;5.50;;;13.50;58.00;;;;;;5103898;28;20035;-75
2020/12/16 02:01:42;;;;;;;14.48;5.47;;;13.40;57.80;;;;;;5100832;28;20103;-75
2020/12/16 02:04:11;;;;;;;11.10;4.82;;;13.20;58.20;;;;;;5101996;28;20024;-75
2020/12/16 02:06:41;;;;;;;11.82;4.30;;;13.20;58.60;;;;;;5098613;28;20381;-75
2020/12/16 02:09:10;;;;;;;13.68;4.53;;;13.10;58.40;;;;;;5093500;28;20024;-75
2020/12/16 02:11:40;;;;;;;20.08;6.35;;;13.10;58.40;;;;;;5094596;28;20111;-75
2020/12/16 02:14:10;;;;;;;14.75;5.28;;;13.10;58.80;;;;;;5096098;28;20463;-75
2020/12/16 02:16:38;;;;;;;16.33;4.95;;;13.10;58.50;;;;;;5091443;28;20539;-75
2020/12/16 02:19:05;;;;;;;15.18;5.07;;;13.20;58.20;;;;;;5095358;28;20031;-75
2020/12/16 02:21:33;;;;;;;15.43;5.15;;;13.30;58.20;;;;;;5103068;28;20031;-75
2020/12/16 02:24:13;;;;;;;13.85;4.40;;;13.20;58.20;;;;;;5101807;28;20152;-75
2020/12/16 02:26:41;;;;;;;16.13;5.43;;;13.10;58.70;;;;;;5094209;28;20024;-75
2020/12/16 02:29:09;;;;;;;16.73;5.35;;;13.20;58.70;;;;;;5096098;28;20063;-75
2020/12/16 02:31:37;;;;;;;15.10;4.70;;;13.30;58.50;;;;;;5093667;28;20082;-75
2020/12/16 02:34:05;;;;;;;18.00;5.18;;;13.30;58.30;;;;;;5086906;28;20481;-76
2020/12/16 02:36:32;;;;;;;14.80;4.35;;;13.30;58.40;;;;;;5088413;28;20029;-75
2020/12/16 02:38:59;;;;;;;18.83;5.57;;;13.20;58.40;;;;;;5087483;28;20064;-75
2020/12/16 02:41:27;;;;;;;16.77;5.00;;;13.20;58.60;;;;;;5102702;28;20032;-76
2020/12/16 02:43:54;;;;;;;14.02;4.93;;;13.10;58.90;;;;;;5089320;28;20036;-75
2020/12/16 02:46:20;;;;;;;12.38;4.55;;;13.10;59.00;;;;;;5086364;28;20039;-75
2020/12/16 02:48:47;;;;;;;10.73;3.70;;;13.10;59.30;;;;;;5098269;28;20035;-75
2020/12/16 02:51:13;;;;;;;8.27;4.15;;;13.00;59.50;;;;;;5090273;28;20032;-75
2020/12/16 02:53:40;;;;;;;11.45;4.13;;;13.00;59.50;;;;;;5092673;28;20020;-75
2020/12/16 02:56:06;;;;;;;9.95;3.67;;;12.90;59.40;;;;;;5100163;28;20016;-75
2020/12/16 02:58:33;;;;;;;16.80;4.55;;;12.90;59.50;;;;;;5098015;28;20052;-75
2020/12/16 03:00:59;;;;;;;10.38;3.97;;;12.90;59.60;;;;;;5099756;28;20031;-75
2020/12/16 03:03:26;;;;;;;13.18;3.85;;;12.80;59.60;;;;;;5091182;28;20031;-75
2020/12/16 03:05:52;;;;;;;15.93;4.68;;;12.80;59.70;;;;;;5101842;28;20023;-76
2020/12/16 03:08:19;;;;;;;13.52;4.60;;;12.80;59.30;;;;;;5096876;28;20032;-75
2020/12/16 03:10:46;;;;;;;13.93;5.03;;;12.80;59.40;;;;;;5092805;28;20491;-75
2020/12/16 03:13:12;;;;;;;18.02;4.93;;;12.80;59.50;;;;;;5081745;28;20074;-75
2020/12/16 03:15:39;;;;;;;19.85;4.45;;;12.70;59.30;;;;;;5087169;28;20028;-75
2020/12/16 03:18:05;;;;;;;14.43;5.13;;;12.70;59.30;;;;;;5091374;28;20021;-75
2020/12/16 03:20:32;;;;;;;23.48;8.00;;;12.70;59.80;;;;;;5085365;28;20024;-75
2020/12/16 03:22:58;;;;;;;17.95;5.22;;;12.60;59.50;;;;;;5107481;28;20032;-76
2020/12/16 03:25:24;;;;;;;26.55;6.63;;;12.60;59.80;;;;;;5098174;28;20111;-75
2020/12/16 03:27:51;;;;;;;18.08;4.65;;;12.60;59.90;;;;;;5094127;28;20035;-75
2020/12/16 03:30:17;;;;;;;20.20;5.00;;;12.50;60.10;;;;;;5084737;28;20029;-76
2020/12/16 03:32:43;;;;;;;15.93;5.03;;;12.50;60.20;;;;;;5091283;28;20464;-74
2020/12/16 03:35:10;;;;;;;22.98;5.43;;;12.60;60.30;;;;;;5097812;28;20020;-75
2020/12/16 03:37:36;;;;;;;22.55;5.03;;;12.50;60.50;;;;;;5083390;28;20068;-75
2020/12/16 03:40:03;;;;;;;15.23;5.68;;;12.50;60.70;;;;;;5087445;28;20024;-74
2020/12/16 03:42:30;;;;;;;23.50;5.50;;;12.50;60.70;;;;;;5109177;28;20032;-76
2020/12/16 03:44:56;;;;;;;20.02;5.32;;;12.60;61.10;;;;;;5093547;28;20358;-75
2020/12/16 03:47:23;;;;;;;20.33;4.55;;;12.60;60.80;;;;;;5089031;28;20024;-75
2020/12/16 03:49:49;;;;;;;17.13;4.38;;;12.60;60.90;;;;;;5079489;28;20373;-75
2020/12/16 03:52:15;;;;;;;17.08;5.50;;;12.60;61.00;;;;;;5090224;28;20035;-75
2020/12/16 03:54:42;;;;;;;13.20;4.13;;;12.70;61.00;;;;;;5092020;28;20024;-75
2020/12/16 03:57:08;;;;;;;27.48;5.47;;;12.70;61.00;;;;;;5087094;28;20020;-75
2020/12/16 03:59:35;;;;;;;13.35;5.80;;;12.70;61.10;;;;;;5095653;28;20032;-75
2020/12/16 04:02:01;;;;;;;17.88;4.78;;;12.70;61.30;;;;;;5093217;28;20453;-75
2020/12/16 04:04:28;;;;;;;23.50;5.78;;;12.70;61.10;;;;;;5093638;28;20123;-76
2020/12/16 04:06:57;;;;;;;18.52;6.10;;;12.70;61.00;;;;;;5090844;28;20031;-75
2020/12/16 04:09:25;;;;;;;12.23;4.30;;;12.60;61.10;;;;;;5095097;28;20104;-75
2020/12/16 04:11:53;;;;;;;15.90;5.18;;;12.60;61.30;;;;;;5095395;28;20031;-76
2020/12/16 04:14:20;;;;;;;10.07;4.10;;;12.60;61.60;;;;;;5093368;28;20021;-76
2020/12/16 04:16:47;;;;;;;23.02;5.57;;;12.50;62.10;;;;;;5088438;28;20019;-74
2020/12/16 04:19:14;;;;;;;10.82;4.78;;;12.40;61.80;;;;;;5083236;28;20043;-75
2020/12/16 04:21:40;;;;;;;16.40;4.95;;;12.40;62.20;;;;;;5086052;28;20020;-75
2020/12/16 04:24:07;;;;;;;14.52;4.15;;;12.40;61.90;;;;;;5093332;28;20051;-75
2020/12/16 04:26:33;;;;;;;12.02;5.22;;;12.40;62.40;;;;;;5090349;28;20111;-76
2020/12/16 04:28:59;;;;;;;18.45;4.88;;;12.50;62.00;;;;;;5091426;28;20081;-75
2020/12/16 04:31:26;;;;;;;16.00;4.57;;;12.50;61.50;;;;;;5099625;28;20020;-75
2020/12/16 04:33:52;;;;;;;19.05;4.75;;;12.50;61.60;;;;;;5104251;28;20373;-75
2020/12/16 04:36:19;;;;;;;19.02;6.07;;;12.50;61.50;;;;;;5095641;28;20023;-75
2020/12/16 04:38:45;;;;;;;16.42;4.95;;;12.40;61.40;;;;;;5101071;28;20028;-75
2020/12/16 04:41:12;;;;;;;13.98;5.38;;;12.40;61.70;;;;;;5097807;28;20089;-75
2020/12/16 04:43:42;;;;;;;13.35;5.00;;;12.30;61.80;;;;;;5099815;28;20031;-75
2020/12/16 04:46:14;;;;;;;16.85;4.70;;;12.40;61.70;;;;;;5096050;28;20154;-75
2020/12/16 04:48:45;;;;;;;16.73;4.32;;;12.50;61.60;;;;;;5088154;28;20024;-75
2020/12/16 04:51:17;;;;;;;14.82;4.10;;;12.40;61.10;;;;;;5102312;28;20107;-76
2020/12/16 04:53:45;;;;;;;22.87;5.30;;;12.30;61.60;;;;;;5116406;28;20038;-76
2020/12/16 04:56:13;;;;;;;14.40;4.60;;;12.20;61.60;;;;;;5095822;28;20024;-76
2020/12/16 04:58:40;;;;;;;15.20;4.90;;;12.20;61.70;;;;;;5102137;28;20053;-77
2020/12/16 05:01:08;;;;;;;8.77;4.05;;;12.10;61.60;;;;;;5108358;28;20090;-75
2020/12/16 05:03:34;;;;;;;13.63;4.95;;;12.10;61.50;;;;;;5095233;28;20028;-77
2020/12/16 05:06:01;;;;;;;10.18;4.28;;;12.20;61.20;;;;;;5094702;28;20027;-76
2020/12/16 05:08:28;;;;;;;18.83;4.70;;;12.20;61.00;;;;;;5085863;28;20043;-76
2020/12/16 05:10:54;;;;;;;16.40;4.10;;;12.20;60.90;;;;;;5097267;28;20103;-75
2020/12/16 05:13:22;;;;;;;10.48;5.05;;;12.20;60.90;;;;;;5090297;28;20016;-76
2020/12/16 05:15:50;;;;;;;14.63;5.00;;;12.20;60.70;;;;;;5105640;28;20205;-76
2020/12/16 05:18:21;;;;;;;10.60;3.78;;;12.10;60.40;;;;;;5102638;28;20019;-75
2020/12/16 05:20:56;;;;;;;13.18;4.40;;;12.10;60.70;;;;;;5093983;28;20032;-75
2020/12/16 05:23:31;;;;;;;15.85;4.55;;;12.00;60.70;;;;;;5088748;28;20549;-76
2020/12/16 05:26:10;;;;;;;9.82;4.57;;;11.90;61.10;;;;;;5101327;28;20399;-76
2020/12/16 05:28:45;;;;;;;12.80;3.88;;;11.80;61.30;;;;;;5096174;28;20028;-76
2020/12/16 05:31:13;;;;;;;23.90;5.03;;;11.70;61.50;;;;;;5088350;28;20107;-76
2020/12/16 05:33:48;;;;;;;16.75;4.78;;;11.70;61.60;;;;;;5086049;28;20488;-76
2020/12/16 05:36:31;;;;;;;8.32;4.50;;;11.60;61.60;;;;;;5094926;28;20423;-76
2020/12/16 05:38:59;;;;;;;8.40;4.18;;;11.70;61.40;;;;;;5084492;28;20028;-76
2020/12/16 05:41:34;;;;;;;13.73;4.50;;;11.70;60.90;;;;;;5087902;28;20046;-76
2020/12/16 05:44:24;;;;;;;11.38;3.92;;;11.70;61.00;;;;;;5090618;28;20111;-76
2020/12/16 05:46:52;;;;;;;8.57;4.40;;;11.80;60.50;;;;;;5095158;28;20027;-76
2020/12/16 05:49:36;;;;;;;18.30;4.43;;;11.70;60.70;;;;;;5088295;28;20074;-76
2020/12/16 05:52:04;;;;;;;12.55;4.70;;;11.80;60.60;;;;;;5088120;28;20095;-75
2020/12/16 05:54:32;;;;;;;16.40;4.50;;;11.60;60.50;;;;;;5086463;28;20024;-75
2020/12/16 05:57:21;;;;;;;13.30;4.38;;;11.60;61.00;;;;;;5083443;28;20071;-76
2020/12/16 06:00:06;;;;;;;11.60;5.47;;;11.50;61.40;;;;;;5088377;28;20067;-76
2020/12/16 06:02:35;;;;;;;11.80;5.15;;;11.50;61.40;;;;;;5097618;28;20058;-76
2020/12/16 06:05:03;;;;;;;11.45;4.45;;;11.60;61.30;;;;;;5098761;28;20133;-76
2020/12/16 06:07:32;;;;;;;16.10;4.57;;;11.50;61.50;;;;;;5080416;28;20024;-75
2020/12/16 06:09:59;;;;;;;15.00;4.68;;;11.70;61.40;;;;;;5092877;28;20075;-73
2020/12/16 06:12:28;;;;;;;9.25;3.83;;;11.80;61.20;;;;;;5094962;28;20060;-73
2020/12/16 06:15:08;;;;;;;12.23;4.10;;;11.80;60.80;;;;;;5095112;28;20391;-75
2020/12/16 06:17:46;;;;;;;16.27;5.40;;;11.70;60.90;;;;;;5096774;28;20024;-75
2020/12/16 06:20:16;;;;;;;13.45;3.70;;;11.70;61.00;;;;;;5097704;28;20036;-76
2020/12/16 06:22:44;;;;;;;12.55;4.68;;;11.70;60.90;;;;;;5098402;28;20028;-75
2020/12/16 06:25:14;;;;;;;12.80;3.78;;;11.60;61.10;;;;;;5101754;28;20020;-76
2020/12/16 06:27:48;;;;;;;11.32;4.15;;;11.70;60.90;;;;;;5097110;28;20055;-75
2020/12/16 06:30:16;;;;;;;11.02;3.75;;;11.60;61.10;;;;;;5098630;28;20028;-75
2020/12/16 06:32:47;;;;;;;10.00;4.03;;;11.50;61.00;;;;;;5109381;28;20102;-76
2020/12/16 06:35:18;;;;;;;17.02;5.50;;;11.50;61.10;;;;;;5097460;28;20331;-76
2020/12/16 06:37:45;;;;;;;6.70;3.10;;;11.50;61.20;;;;;;5087092;28;20019;-76
2020/12/16 06:40:32;;;;;;;9.02;3.88;;;11.40;61.50;;;;;;5093963;28;20036;-76
2020/12/16 06:42:58;;;;;;;10.50;4.03;;;11.30;61.90;;;;;;5093175;28;20362;-76
2020/12/16 06:45:32;;;;;;;17.23;5.10;;;11.40;61.40;;;;;;5084549;28;20024;-75
2020/12/16 06:48:37;;;;;;;12.63;3.95;;;11.30;61.60;;;;;;5087664;28;20028;-75
2020/12/16 06:51:21;;;;;;;19.27;4.28;;;11.20;62.00;;;;;;5082098;28;20024;-75
2020/12/16 06:53:48;;;;;;;13.85;4.97;;;11.10;62.10;;;;;;5087731;28;20177;-75
2020/12/16 06:56:21;;;;;;;12.85;4.45;;;11.10;62.50;;;;;;5095467;28;20020;-75
2020/12/16 06:58:47;;;;;;;11.35;4.88;;;11.20;62.60;;;;;;5094376;28;20107;-75
2020/12/16 07:01:16;;;;;;;9.65;4.15;;;11.10;62.50;;;;;;5095105;28;20107;-75
2020/12/16 07:03:43;;;;;;;10.75;4.57;;;11.20;62.50;;;;;;5098174;28;20036;-76
2020/12/16 07:06:32;;;;;;;15.40;4.90;;;11.10;62.50;;;;;;5096188;28;20024;-75
2020/12/16 07:09:19;;;;;;;12.20;5.38;;;11.10;62.80;;;;;;5094243;28;20024;-75
2020/12/16 07:11:46;;;;;;;12.38;4.20;;;11.10;62.90;;;;;;5089680;28;20362;-76
2020/12/16 07:14:22;;;;;;;13.90;4.20;;;10.90;63.00;;;;;;5087145;28;20102;-76
2020/12/16 07:16:49;;;;;;;17.15;4.93;;;10.80;63.30;;;;;;5094557;28;20105;-76
2020/12/16 07:19:25;;;;;;;14.15;4.75;;;10.80;63.80;;;;;;5090251;28;20039;-75
2020/12/16 07:21:52;;;;;;;19.83;5.32;;;11.00;63.90;;;;;;5085678;28;20055;-75
2020/12/16 07:24:18;;;;;;;14.05;4.05;;;11.00;63.50;;;;;;5097013;28;20031;-76
2020/12/16 07:26:48;;;;;;;15.20;5.78;;;11.00;63.60;;;;;;5095280;28;20035;-75
2020/12/16 07:29:31;;;;;;;13.50;4.10;;;11.00;64.10;;;;;;5091636;28;20486;-75
2020/12/16 07:32:04;;;;;;;15.68;4.22;;;11.00;63.90;;;;;;5087200;28;20035;-76
2020/12/16 07:34:33;;;;;;;13.90;4.28;;;11.10;63.80;;;;;;5095458;28;20479;-75
2020/12/16 07:37:03;;;;;;;20.50;5.72;;;11.10;63.80;;;;;;5096533;28;20023;-76
2020/12/16 07:39:31;;;;;;;10.85;3.85;;;11.10;63.70;;;;;;5095483;28;20028;-76
2020/12/16 07:42:00;;;;;;;14.73;4.57;;;11.00;63.60;;;;;;5092802;28;20024;-76
2020/12/16 07:44:27;;;;;;;17.08;4.47;;;11.00;63.80;;;;;;5092020;28;20024;-76
2020/12/16 07:47:03;;;;;;;10.50;4.10;;;10.80;63.80;;;;;;5093550;28;20289;-76
2020/12/16 07:49:30;;;;;;;13.18;3.97;;;10.80;64.00;;;;;;5082713;28;20074;-76
2020/12/16 07:52:03;;;;;;;14.00;4.07;;;10.80;64.30;;;;;;5093773;28;20016;-75
2020/12/16 07:54:30;;;;;;;10.57;4.63;;;10.90;64.10;;;;;;5091788;28;20099;-76
2020/12/16 07:56:57;;;;;;;20.60;6.38;;;10.90;63.80;;;;;;5090560;28;20078;-75
2020/12/16 07:59:29;;;;;;;12.85;4.25;;;10.90;64.00;;;;;;5084318;28;20103;-76
2020/12/16 08:02:11;;;;;;;19.02;6.00;;;10.80;63.90;;;;;;5090073;28;20028;-75
2020/12/16 08:04:41;;;;;;;13.15;4.30;;;10.80;64.50;;;;;;5091918;28;20058;-76
2020/12/16 08:07:12;;;;;;;11.32;4.25;;;10.70;64.30;;;;;;5091281;28;20032;-75
2020/12/16 08:09:49;;;;;;;14.63;4.75;;;10.70;64.50;;;;;;5094139;28;20025;-75
2020/12/16 08:12:17;;;;;;;18.25;5.18;;;10.70;64.70;;;;;;5093718;28;20411;-75
2020/12/16 08:14:45;;;;;;;16.33;4.47;;;10.60;64.70;;;;;;5089149;28;20115;-76
2020/12/16 08:17:11;;;;;;;16.75;4.90;;;10.70;64.90;;;;;;5093581;28;20502;-75
2020/12/16 08:19:38;;;;;;;27.58;8.27;;;10.60;64.90;;;;;;5092894;28;20028;-76
2020/12/16 08:22:16;;;;;;;16.05;4.80;;;10.60;65.10;;;;;;5089969;28;20031;-76
2020/12/16 08:24:59;;;;;;;18.33;5.30;;;10.60;65.30;;;;;;5089977;28;20020;-76
2020/12/16 08:27:27;;;;;;;13.50;4.20;;;10.60;65.20;;;;;;5095105;28;20028;-76
2020/12/16 08:29:55;;;;;;;14.35;5.45;;;10.60;65.30;;;;;;5088028;28;20032;-76
2020/12/16 08:32:26;;;;;;;18.38;4.93;;;10.50;64.90;;;;;;5090648;28;20365;-75
2020/12/16 08:34:55;;;;;;;24.63;5.00;;;10.50;65.60;;;;;;5094247;28;20017;-75
2020/12/16 08:37:22;;;;;;;11.65;4.28;;;10.50;65.20;;;;;;5079341;28;20028;-76
2020/12/16 08:39:50;;;;;;;16.05;4.75;;;10.50;65.60;;;;;;5096027;28;20020;-76
2020/12/16 08:42:24;;;;;;;20.25;5.07;;;10.50;65.20;;;;;;5094391;28;20036;-76
2020/12/16 08:44:51;;;;;;;17.80;4.65;;;10.40;65.60;;;;;;5086222;28;20024;-76
2020/12/16 08:47:31;;;;;;;14.45;3.75;;;10.40;65.20;;;;;;5095386;28;20089;-76
2020/12/16 08:49:58;;;;;;;16.73;4.35;;;10.40;65.70;;;;;;5093670;28;20051;-76
2020/12/16 08:52:24;;;;;;;12.80;3.70;;;10.30;65.70;;;;;;5095122;28;20028;-76
2020/12/16 08:54:52;;;;;;;8.85;4.20;;;10.20;65.80;;;;;;5083276;28;20698;-76
2020/12/16 08:57:20;;;;;;;17.83;4.20;;;10.30;66.00;;;;;;5088453;28;20071;-76
2020/12/16 08:59:46;;;;;;;17.05;5.10;;;10.20;65.70;;;;;;5092758;28;20024;-75
2020/12/16 09:02:12;;;;;;;18.98;6.18;;;10.20;65.80;;;;;;5079472;28;20450;-76
2020/12/16 09:04:41;;;;;;;13.70;4.30;;;10.20;66.10;;;;;;5093664;28;20036;-75
2020/12/16 09:07:08;;;;;;;18.75;5.20;;;10.20;65.90;;;;;;5091497;28;20122;-76
2020/12/16 09:09:40;;;;;;;14.60;4.80;;;10.20;65.90;;;;;;5090940;28;20103;-75
2020/12/16 09:12:15;;;;;;;14.40;4.70;;;10.30;66.30;;;;;;5090769;28;20055;-75
2020/12/16 09:14:48;;;;;;;11.23;4.90;;;10.20;66.00;;;;;;5093976;28;20054;-75
2020/12/16 09:17:15;;;;;;;11.60;5.22;;;10.20;66.10;;;;;;5089337;28;20020;-75
2020/12/16 09:19:42;;;;;;;12.75;4.95;;;10.20;66.00;;;;;;5097019;28;20023;-75
2020/12/16 09:22:08;;;;;;;20.05;5.97;;;10.30;65.90;;;;;;5091719;28;20032;-75
2020/12/16 09:24:34;;;;;;;15.00;4.95;;;10.20;65.90;;;;;;5098615;28;20070;-75
2020/12/16 09:27:08;;;;;;;16.40;4.65;;;10.20;66.00;;;;;;5087361;28;20358;-75
2020/12/16 09:29:35;;;;;;;14.27;4.53;;;10.20;66.00;;;;;;5095244;28;20033;-74
2020/12/16 09:32:24;;;;;;;13.93;4.30;;;10.10;66.20;;;;;;5095903;28;20460;-74
2020/12/16 09:34:55;;;;;;;18.10;4.70;;;10.00;66.00;;;;;;5093764;28;20058;-75
2020/12/16 09:37:24;;;;;;;21.58;5.20;;;10.00;66.50;;;;;;5097552;28;20060;-75
2020/12/16 09:40:01;;;;;;;13.00;5.28;;;9.90;66.70;;;;;;5097273;28;20027;-75
2020/12/16 09:42:27;;;;;;;18.95;5.65;;;10.00;67.10;;;;;;5097486;28;20059;-75
2020/12/16 09:45:11;;;;;;;19.75;6.10;;;9.90;66.70;;;;;;5099704;28;20032;-75
2020/12/16 09:47:49;;;;;;;19.05;4.63;;;9.90;66.70;;;;;;5095488;28;20054;-74
2020/12/16 09:50:17;;;;;;;10.98;3.92;;;9.90;66.80;;;;;;5094536;28;20046;-75
2020/12/16 09:52:44;;;;;;;17.48;5.47;;;9.90;67.00;;;;;;5099228;28;20016;-75
2020/12/16 09:55:19;;;;;;;19.23;6.13;;;9.90;67.20;;;;;;5098021;28;20020;-74
2020/12/16 09:58:00;;;;;;;18.13;5.32;;;9.90;67.30;;;;;;5102333;28;20059;-75
2020/12/16 10:00:31;;;;;;;14.82;5.22;;;9.80;67.20;;;;;;5096305;28;20468;-74
2020/12/16 10:03:01;;;;;;;15.65;5.75;;;9.80;67.40;;;;;;5098146;28;20028;-74
2020/12/16 10:05:28;;;;;;;17.88;4.95;;;9.90;68.10;;;;;;5094637;28;20096;-75
2020/12/16 10:07:55;;;;;;;34.30;8.05;;;9.90;67.60;;;;;;5097479;28;20098;-75
2020/12/16 10:10:22;;;;;;;15.23;5.45;;;9.90;67.60;;;;;;5095344;28;20020;-74
2020/12/16 10:12:49;;;;;;;21.48;5.40;;;9.90;67.60;;;;;;5097606;28;20485;-75
2020/12/16 10:15:17;;;;;;;10.80;4.30;;;9.90;67.70;;;;;;5096240;28;20123;-75
2020/12/16 10:17:43;;;;;;;10.63;5.40;;;9.90;68.00;;;;;;5092711;28;20385;-74
2020/12/16 10:20:11;;;;;;;13.23;4.97;;;9.90;68.70;;;;;;5095815;28;20039;-75
2020/12/16 10:22:37;;;;;;;22.65;5.95;;;9.90;68.70;;;;;;5091819;28;20024;-75
2020/12/16 10:25:05;;;;;;;20.90;6.63;;;9.90;68.70;;;;;;5092617;28;20136;-74
2020/12/16 10:27:32;;;;;;;17.23;6.25;;;9.90;69.00;;;;;;5094400;28;20078;-74
2020/12/16 10:30:04;;;;;;;18.65;5.32;;;10.00;69.10;;;;;;5086969;28;20074;-75
2020/12/16 10:32:31;;;;;;;26.17;6.43;;;10.00;68.80;;;;;;5095330;28;20027;-75
2020/12/16 10:34:57;;;;;;;12.95;4.88;;;9.90;69.20;;;;;;5094556;28;20099;-75
2020/12/16 10:37:25;;;;;;;21.02;6.35;;;10.00;69.00;;;;;;5096509;28;20109;-75
2020/12/16 10:39:52;;;;;;;16.55;5.10;;;10.00;68.70;;;;;;5097506;28;20116;-75
2020/12/16 10:42:20;;;;;;;12.27;6.07;;;9.90;68.80;;;;;;5093623;28;20039;-75
2020/12/16 10:44:47;;;;;;;22.13;6.75;;;10.00;69.20;;;;;;5097301;28;20062;-75
2020/12/16 10:47:14;;;;;;;18.83;6.43;;;10.10;69.60;;;;;;5092878;28;20373;-75
2020/12/16 10:49:40;;;;;;;18.15;5.28;;;10.00;69.00;;;;;;5098504;28;20028;-76
2020/12/16 10:52:12;;;;;;;17.98;6.20;;;10.00;69.60;;;;;;5103165;28;20027;-75
2020/12/16 10:54:39;;;;;;;;;;;10.00;69.10;;;;;;5096209;28;20024;-74
2020/12/16 10:57:06;;;;;;;23.55;7.38;;;10.00;69.20;;;;;;5094387;28;20353;-74
2020/12/16 10:59:33;;;;;;;26.60;8.40;;;10.00;69.20;;;;;;5095586;28;20032;-75
2020/12/16 11:01:59;;;;;;;24.90;6.65;;;10.00;68.90;;;;;;5097405;28;20103;-74
2020/12/16 11:04:32;;;;;;;17.75;5.78;;;10.10;68.70;;;;;;5096240;28;20023;-75
2020/12/16 11:06:58;;;;;;;16.88;6.13;;;10.00;68.70;;;;;;5097387;28;20027;-75
2020/12/16 11:09:25;;;;;;;17.42;5.60;;;10.00;69.00;;;;;;5091661;28;20035;-75
2020/12/16 11:11:53;;;;;;;25.63;7.13;;;9.90;69.40;;;;;;5095767;28;20027;-75
2020/12/16 11:14:25;;;;;;;13.85;5.82;;;9.90;69.80;;;;;;5094236;28;20032;-75
2020/12/16 11:16:53;;;;;;;24.90;6.70;;;10.00;70.10;;;;;;5097154;28;20031;-75
2020/12/16 11:19:19;;;;;;;22.30;6.13;;;10.00;69.60;;;;;;5096774;28;20060;-75
2020/12/16 11:21:48;;;;;;;14.35;5.80;;;10.00;69.50;;;;;;5095318;28;20024;-75
2020/12/16 11:24:16;;;;;;;14.07;6.53;;;10.00;69.90;;;;;;5096223;28;20040;-75
2020/12/16 11:26:45;;;;;;;23.92;6.95;;;10.00;70.10;;;;;;5096050;28;20017;-75
2020/12/16 11:29:11;;;;;;;19.42;5.88;;;9.90;70.00;;;;;;5094855;28;20043;-74
2020/12/16 11:31:57;;;;;;;22.70;6.45;;;9.80;70.00;;;;;;5096265;28;20465;-75
2020/12/16 11:34:27;;;;;;;13.10;5.40;;;9.70;70.30;;;;;;5093709;28;20098;-74
2020/12/16 11:36:56;;;;;;;19.42;6.05;;;9.80;70.30;;;;;;5094178;28;20032;-75
2020/12/16 11:39:25;;;;;;;23.10;5.85;;;9.80;70.10;;;;;;5082418;28;20028;-74
2020/12/16 11:41:53;;;;;;;17.35;5.95;;;9.80;69.80;;;;;;5095260;28;20059;-75
2020/12/16 11:44:21;;;;;;;19.95;6.53;;;9.70;69.80;;;;;;5095039;28;20039;-75
2020/12/16 11:46:48;;;;;;;16.30;5.22;;;9.60;69.80;;;;;;5093662;28;20032;-75
2020/12/16 11:49:16;;;;;;;18.38;6.63;;;9.60;70.20;;;;;;5094702;28;20082;-75
2020/12/16 11:51:42;;;;;;;19.92;6.97;;;9.60;70.50;;;;;;5094468;28;20028;-75
2020/12/16 11:54:09;;;;;;;18.30;5.70;;;9.60;71.10;;;;;;5095827;28;20028;-74
2020/12/16 11:56:36;;;;;;;17.13;5.95;;;9.50;70.40;;;;;;5093597;28;20020;-75
2020/12/16 11:59:04;;;;;;;25.10;6.38;;;9.50;70.90;;;;;;5100070;28;20023;-75
2020/12/16 12:01:31;;;;;;;19.20;7.30;;;9.40;70.90;;;;;;5096848;28;20027;-75
2020/12/16 12:03:57;;;;;;;26.27;7.15;;;9.40;71.20;;;;;;5095372;28;20028;-75
2020/12/16 12:06:24;;;;;;;21.73;7.03;;;9.40;71.10;;;;;;5086441;28;20027;-75
2020/12/16 12:08:50;;;;;;;28.23;6.65;;;9.40;71.30;;;;;;5094966;28;20020;-74
2020/12/16 12:11:18;;;;;;;15.15;5.68;;;9.40;71.70;;;;;;5094810;28;20024;-74
2020/12/16 12:13:45;;;;;;;20.40;6.93;;;9.60;71.70;;;;;;5093591;28;20365;-74
2020/12/16 12:16:14;;;;;;;21.25;6.70;;;9.80;71.10;;;;;;5094648;28;20355;-75
2020/12/16 12:18:42;;;;;;;24.20;6.30;;;9.70;70.60;;;;;;5096093;28;20024;-75
2020/12/16 12:21:10;;;;;;;19.10;7.10;;;9.60;70.40;;;;;;5094225;28;20078;-75
2020/12/16 12:23:37;;;;;;;19.17;5.05;;;9.50;70.70;;;;;;5095426;28;20024;-74
2020/12/16 12:26:04;;;;;;;24.77;5.32;;;9.50;71.20;;;;;;5095335;28;20020;-74
2020/12/16 12:28:31;;;;;;;23.52;6.30;;;9.50;71.00;;;;;;5095145;28;20020;-75
2020/12/16 12:30:58;;;;;;;18.90;5.80;;;9.50;70.90;;;;;;5095165;28;20114;-74
2020/12/16 12:33:24;;;;;;;18.80;6.65;;;9.40;71.30;;;;;;5095646;28;20053;-74
2020/12/16 12:35:51;;;;;;;21.15;7.35;;;9.40;71.40;;;;;;5094906;28;20020;-75
2020/12/16 12:38:17;;;;;;;16.88;6.35;;;9.50;71.40;;;;;;5095371;28;20105;-75
2020/12/16 12:40:44;;;;;;;22.27;6.82;;;9.50;71.30;;;;;;5094806;28;20090;-74
2020/12/16 12:43:11;;;;;;;20.95;5.20;;;9.40;71.40;;;;;;5088999;28;20055;-74
2020/12/16 12:45:38;;;;;;;34.60;6.90;;;9.40;71.40;;;;;;5095220;28;20116;-75
2020/12/16 12:48:04;;;;;;;20.73;5.40;;;9.40;71.40;;;;;;5095427;28;20109;-75
2020/12/16 12:50:31;;;;;;;21.52;6.40;;;9.50;71.30;;;;;;5095380;28;20024;-74